Time;durP1;ratioP1;P1;durP2;ratioP2;P2;SDS_P1;SDS_P2;PMS_P1;PMS_P2;Temp;Humidity;BMP_temperature;BMP_pressure;BME280_temperature;BME280_humidity;BME280_pressure;Samples;Min_cycle;Max_cycle;Signal;HPM_P1;HPM_P2
2022/04/27 00:01:38;;;;;;;;;;;;;;;8.42;100.00;100089.09;5134755;27;19976;-76
2022/04/27 00:04:06;;;;;;;;;;;;;;;8.26;100.00;100085.75;5116552;28;19955;-76
2022/04/27 00:06:33;;;;;;;;;;;;;;;7.57;100.00;100081.03;5099597;28;20366;-76
2022/04/27 00:09:00;;;;;;;;;;;;;;;8.00;100.00;100091.44;5116489;28;20434;-76
2022/04/27 00:11:27;;;;;;;;;;;;;;;8.10;100.00;100089.94;5134709;28;19927;-76
2022/04/27 00:13:54;;;;;;;;;;;;;;;8.10;100.00;100090.75;5099251;28;19959;-76
2022/04/27 00:16:22;;;;;;;;;;;;;;;7.90;100.00;100089.34;5134732;28;20009;-76
2022/04/27 00:18:50;;;;;;;;;;;;;;;7.77;100.00;100090.78;5113840;28;19972;-76
2022/04/27 00:21:17;;;;;;;;;;;;;;;8.02;100.00;100099.41;5111586;28;20014;-76
2022/04/27 00:23:45;;;;;;;;;;;;;;;7.98;100.00;100085.44;5116290;28;20064;-76
2022/04/27 00:26:12;;;;;;;;;;;;;;;7.60;100.00;100088.59;5134570;27;20401;-76
2022/04/27 00:28:39;;;;;;;;;;;;;;;7.94;100.00;100089.38;5134325;28;20305;-76
2022/04/27 00:31:06;;;;;;;;;;;;;;;8.08;100.00;100092.31;5116349;28;19929;-76
2022/04/27 00:33:34;;;;;;;;;;;;;;;8.09;100.00;100094.69;5099366;28;19923;-76
2022/04/27 00:36:01;;;;;;;;;;;;;;;8.28;100.00;100097.31;5116327;28;20010;-76
2022/04/27 00:38:28;;;;;;;;;;;;;;;7.68;100.00;100090.28;5123774;28;20027;-76
2022/04/27 00:40:55;;;;;;;;;;;;;;;7.97;100.00;100097.75;5079158;28;19927;-76
2022/04/27 00:43:36;;;;;;;;;;;;;;;8.30;100.00;100094.94;5078737;28;19962;-76
2022/04/27 00:46:03;;;;;;;;;;;;;;;7.63;100.00;100087.84;5113959;28;19949;-76
2022/04/27 00:48:30;;;;;;;;;;;;;;;7.57;100.00;100088.56;5113910;28;19923;-76
2022/04/27 00:50:59;;;;;;;;;;;;;;;7.84;100.00;100079.75;5114049;28;19923;-76
2022/04/27 00:53:26;;;;;;;;;;;;;;;7.75;100.00;100079.25;5079351;28;19963;-76
2022/04/27 00:55:53;;;;;;;;;;;;;;;7.81;100.00;100088.84;5099767;28;19924;-76
2022/04/27 00:58:21;;;;;;;;;;;;;;;7.96;100.00;100085.03;5099212;28;19924;-76
2022/04/27 01:00:57;;;;;;;;;;;;;;;7.48;100.00;100080.50;5099672;28;19927;-76
2022/04/27 01:03:25;;;;;;;;;;;;;;;7.28;100.00;100088.16;5099854;28;19923;-75
2022/04/27 01:05:53;;;;;;;;;;;;;;;7.54;100.00;100079.00;5117670;28;19968;-76
2022/04/27 01:08:23;;;;;;;;;;;;;;;7.49;100.00;100087.66;5099234;28;19930;-76
2022/04/27 01:10:50;;;;;;;;;;;;;;;7.23;100.00;100094.09;5082282;28;19931;-76
2022/04/27 01:13:18;;;;;;;;;;;;;;;7.07;100.00;100087.09;5099415;28;19923;-75
2022/04/27 01:15:51;;;;;;;;;;;;;;;7.13;100.00;100097.50;5117279;27;19923;-75
2022/04/27 01:18:18;;;;;;;;;;;;;;;7.11;100.00;100091.53;5119820;27;19931;-75
2022/04/27 01:20:51;;;;;;;;;;;;;;;6.84;100.00;100105.81;5119643;27;19923;-75
2022/04/27 01:23:19;;;;;;;;;;;;;;;6.92;100.00;100096.41;5102835;27;19923;-75
2022/04/27 01:25:48;;;;;;;;;;;;;;;7.11;100.00;100096.28;5102530;27;20017;-75
2022/04/27 01:28:19;;;;;;;;;;;;;;;7.16;100.00;100095.97;5119367;27;19924;-75
2022/04/27 01:30:47;;;;;;;;;;;;;;;7.46;100.00;100099.53;5085903;27;20305;-76
2022/04/27 01:33:14;;;;;;;;;;;;;;;7.23;100.00;100098.84;5119510;27;20022;-76
2022/04/27 01:35:41;;;;;;;;;;;;;;;7.37;100.00;100099.03;5137710;27;19931;-76
2022/04/27 01:38:09;;;;;;;;;;;;;;;7.52;100.00;100094.44;5119340;27;19924;-75
2022/04/27 01:40:36;;;;;;;;;;;;;;;7.91;100.00;100096.50;5119154;27;19923;-76
2022/04/27 01:43:03;;;;;;;;;;;;;;;8.14;100.00;100094.38;5102152;27;19946;-76
2022/04/27 01:45:30;;;;;;;;;;;;;;;8.28;100.00;100097.31;5101742;27;20352;-76
2022/04/27 01:47:59;;;;;;;;;;;;;;;8.32;100.00;100100.13;5118766;27;19999;-76
2022/04/27 01:50:26;;;;;;;;;;;;;;;8.36;100.00;100092.63;5118738;27;20008;-76
2022/04/27 01:55:39;;;;;;;;;;;;;;;8.16;100.00;100100.34;5118353;27;19923;-75
2022/04/27 01:58:07;;;;;;;;;;;;;;;8.08;100.00;100098.69;5118347;27;19923;-75
2022/04/27 02:00:34;;;;;;;;;;;;;;;8.16;100.00;100094.78;5118905;27;19946;-74
2022/04/27 02:03:01;;;;;;;;;;;;;;;8.21;100.00;100096.44;5119130;27;19990;-75
2022/04/27 02:05:28;;;;;;;;;;;;;;;7.77;100.00;100098.34;5119119;27;19927;-75
2022/04/27 02:07:56;;;;;;;;;;;;;;;7.58;100.00;100093.75;5115530;28;19993;-75
2022/04/27 02:10:23;;;;;;;;;;;;;;;7.36;100.00;100100.22;5115023;28;20316;-75
2022/04/27 02:12:51;;;;;;;;;;;;;;;7.70;100.00;100106.59;5115223;28;19923;-75
2022/04/27 02:15:22;;;;;;;;;;;;;;;7.50;100.00;100100.38;5101407;28;19924;-75
2022/04/27 02:18:00;;;;;;;;;;;;;;;7.65;100.00;100104.94;5094772;28;19931;-75
2022/04/27 02:20:28;;;;;;;;;;;;;;;7.60;100.00;100105.28;5094805;28;19924;-75
2022/04/27 02:22:55;;;;;;;;;;;;;;;7.45;100.00;100102.69;5077984;28;19924;-75
2022/04/27 02:25:23;;;;;;;;;;;;;;;6.76;100.00;100109.66;5094623;28;19932;-75
2022/04/27 02:27:50;;;;;;;;;;;;;;;6.76;100.00;100107.69;5094535;28;20003;-75
2022/04/27 02:30:20;;;;;;;;;;;;;;;6.62;100.00;100115.78;5060814;28;20275;-75
2022/04/27 02:32:48;;;;;;;;;;;;;;;7.16;100.00;100110.66;5094572;28;19967;-75
2022/04/27 02:35:16;;;;;;;;;;;;;;;7.42;100.00;100109.84;5077484;28;19931;-75
2022/04/27 02:37:43;;;;;;;;;;;;;;;7.39;100.00;100113.38;5094184;28;19924;-75
2022/04/27 02:40:10;;;;;;;;;;;;;;;7.43;100.00;100114.19;5094207;28;20271;-75
2022/04/27 02:42:38;;;;;;;;;;;;;;;7.26;100.00;100104.44;5094263;28;20360;-75
2022/04/27 02:45:05;;;;;;;;;;;;;;;7.30;100.00;100102.50;5095695;28;19963;-75
2022/04/27 02:47:33;;;;;;;;;;;;;;;7.44;100.00;100112.25;5110034;28;19924;-75
2022/04/27 02:52:58;;;;;;;;;;;;;;;7.37;100.00;100112.94;5114084;28;20290;-75
2022/04/27 02:55:34;;;;;;;;;;;;;;;6.95;100.00;100120.69;5097388;28;20339;-75
2022/04/27 02:58:02;;;;;;;;;;;;;;;6.87;100.00;100119.75;5114313;28;20367;-75
2022/04/27 03:00:30;;;;;;;;;;;;;;;7.03;100.00;100119.59;5114165;28;19943;-75
2022/04/27 03:03:03;;;;;;;;;;;;;;;7.01;100.00;100122.72;5113288;28;19924;-75
2022/04/27 03:05:30;;;;;;;;;;;;;;;6.96;100.00;100119.50;5113905;28;20286;-75
2022/04/27 03:07:58;;;;;;;;;;;;;;;6.95;100.00;100117.91;5096560;28;20363;-75
2022/04/27 03:10:27;;;;;;;;;;;;;;;7.00;100.00;100117.56;5114137;28;19931;-75
2022/04/27 03:12:54;;;;;;;;;;;;;;;7.05;100.00;100128.34;5096940;28;19974;-75
2022/04/27 03:15:22;;;;;;;;;;;;;;;6.92;100.00;100127.75;5115179;28;20318;-75
2022/04/27 03:18:16;;;;;;;;;;;;;;;6.76;100.00;100120.75;5113272;28;20383;-75
2022/04/27 03:20:37;;;;;;;;;;;;;;;6.57;100.00;100118.06;5106949;28;19924;-75
2022/04/27 03:23:05;;;;;;;;;;;;;;;6.52;100.00;100121.16;5093182;28;19930;-75
2022/04/27 03:25:33;;;;;;;;;;;;;;;6.36;100.00;100126.03;5093451;28;20448;-75
2022/04/27 03:28:03;;;;;;;;;;;;;;;6.44;100.00;100119.41;5093384;28;20359;-75
2022/04/27 03:30:32;;;;;;;;;;;;;;;6.52;100.00;100115.59;5093034;28;19993;-75
2022/04/27 03:33:01;;;;;;;;;;;;;;;6.62;100.00;100126.09;5093249;28;20371;-75
2022/04/27 03:35:30;;;;;;;;;;;;;;;6.52;100.00;100126.72;5093029;28;19931;-75
2022/04/27 03:37:58;;;;;;;;;;;;;;;6.38;100.00;100116.16;5093022;28;20441;-75
2022/04/27 03:40:25;;;;;;;;;;;;;;;6.41;100.00;100125.72;5093198;28;19974;-75
2022/04/27 03:42:53;;;;;;;;;;;;;;;6.34;100.00;100122.81;5093044;28;19928;-75
2022/04/27 03:45:20;;;;;;;;;;;;;;;6.31;100.00;100127.16;5076278;28;19924;-75
2022/04/27 03:47:49;;;;;;;;;;;;;;;5.97;100.00;100119.00;5092952;28;20413;-75
2022/04/27 03:50:18;;;;;;;;;;;;;;;6.09;100.00;100127.91;5075930;28;19960;-75
2022/04/27 03:52:51;;;;;;;;;;;;;;;6.22;100.00;100125.78;5092925;28;19928;-75
2022/04/27 03:55:20;;;;;;;;;;;;;;;6.18;100.00;100131.25;5094119;28;19963;-75
2022/04/27 03:57:47;;;;;;;;;;;;;;;6.04;100.00;100136.56;5104933;28;20011;-75
2022/04/27 04:00:17;;;;;;;;;;;;;;;6.10;100.00;100137.06;5113445;28;19924;-75
2022/04/27 04:02:49;;;;;;;;;;;;;;;5.82;100.00;100144.81;5113128;28;19928;-75
2022/04/27 04:05:16;;;;;;;;;;;;;;;5.95;100.00;100141.56;5079442;28;20407;-75
2022/04/27 04:07:44;;;;;;;;;;;;;;;5.98;100.00;100145.56;5112830;28;19976;-75
2022/04/27 04:10:12;;;;;;;;;;;;;;;5.94;100.00;100139.16;5113041;28;19928;-75
2022/04/27 04:12:46;;;;;;;;;;;;;;;5.56;100.00;100146.25;5113077;28;20043;-74
2022/04/27 04:15:37;;;;;;;;;;;;;;;5.94;100.00;100153.00;5114034;28;19928;-75
2022/04/27 04:18:22;;;;;;;;;;;;;;;6.15;100.00;100145.09;5114191;28;20369;-74
2022/04/27 04:21:10;;;;;;;;;;;;;;;5.51;100.00;100143.78;5112732;28;19931;-74
2022/04/27 04:24:06;;;;;;;;;;;;;;;5.57;100.00;100144.31;5095369;28;19924;-74
2022/04/27 04:29:26;;;;;;;;;;;;;;;5.79;100.00;100153.84;5097744;28;19946;-74
2022/04/27 04:31:53;;;;;;;;;;;;;;;5.82;100.00;100153.13;5117022;28;20369;-74
2022/04/27 04:35:11;;;;;;;;;;;;;;;5.73;100.00;100146.97;5074659;28;20023;-74
2022/04/27 04:37:38;;;;;;;;;;;;;;;5.29;100.00;100161.13;5075113;28;19924;-74
2022/04/27 04:40:05;;;;;;;;;;;;;;;5.36;100.00;100164.03;5075036;28;19924;-74
2022/04/27 04:42:35;;;;;;;;;;;;;;;5.53;100.00;100162.81;5073550;28;19931;-75
2022/04/27 04:45:02;;;;;;;;;;;;;;;5.35;100.00;100169.94;5033851;28;19924;-74
2022/04/27 04:47:47;;;;;;;;;;;;;;;5.33;100.00;100170.31;5074905;28;19963;-74
2022/04/27 04:50:29;;;;;;;;;;;;;;;5.46;100.00;100166.25;5057812;28;19971;-74
2022/04/27 04:53:28;;;;;;;;;;;;;;;5.50;100.00;100175.44;5014995;28;20025;-74
2022/04/27 04:56:21;;;;;;;;;;;;;;;5.54;100.00;100170.75;5013842;28;20304;-74
2022/04/27 04:59:08;;;;;;;;;;;;;;;5.51;100.00;100171.50;5008046;28;19964;-74
2022/04/27 05:01:54;;;;;;;;;;;;;;;5.72;100.00;100175.88;5010499;28;19925;-74
2022/04/27 05:04:47;;;;;;;;;;;;;;;5.85;100.00;100174.59;4992730;28;19926;-74
2022/04/27 05:07:38;;;;;;;;;;;;;;;5.50;100.00;100178.22;4995094;28;20019;-74
2022/04/27 05:10:18;;;;;;;;;;;;;;;4.70;100.00;100179.88;4995134;28;19926;-74
2022/04/27 05:13:03;;;;;;;;;;;;;;;4.70;100.00;100179.88;5017954;28;20327;-74
2022/04/27 05:15:49;;;;;;;;;;;;;;;5.09;100.00;100192.72;5032998;28;19932;-74
2022/04/27 05:18:40;;;;;;;;;;;;;;;5.04;100.00;100192.19;5028826;28;19955;-74
2022/04/27 05:21:16;;;;;;;;;;;;;;;4.61;100.00;100195.88;5034369;28;19925;-74
2022/04/27 05:24:06;;;;;;;;;;;;;;;5.15;100.00;100207.13;5031608;28;20019;-74
2022/04/27 05:27:04;;;;;;;;;;;;;;;5.32;100.00;100201.97;5034087;28;19926;-74
2022/04/27 05:32:52;;;;;;;;;;;;;;;5.81;100.00;100206.97;5053834;28;19925;-74
2022/04/27 05:35:39;;;;;;;;;;;;;;;6.17;100.00;100203.78;5053957;28;19929;-74
2022/04/27 05:38:26;;;;;;;;;;;;;;;6.66;100.00;100213.06;5040151;28;19925;-74
2022/04/27 05:41:09;;;;;;;;;;;;;;;7.33;100.00;100223.28;5036978;28;20031;-74
2022/04/27 05:43:43;;;;;;;;;;;;;;;7.60;100.00;100212.97;5053770;28;20497;-74
2022/04/27 05:46:30;;;;;;;;;;;;;;;8.01;100.00;100209.91;5053549;28;19934;-74
2022/04/27 05:49:27;;;;;;;;;;;;;;;8.97;100.00;100201.41;5013799;28;19932;-74
2022/04/27 05:52:13;;;;;;;;;;;;;;;9.34;100.00;100207.69;4981468;28;19926;-75
2022/04/27 05:55:05;;;;;;;;;;;;;;;9.27;100.00;100204.81;5013991;28;19949;-75
2022/04/27 05:58:00;;;;;;;;;;;;;;;9.58;100.00;100203.44;4992447;28;19925;-76
2022/04/27 06:00:33;;;;;;;;;;;;;;;9.29;100.00;100198.84;5029235;28;19972;-76
2022/04/27 06:03:20;;;;;;;;;;;;;;;8.98;100.00;100198.22;5030390;28;19929;-76
2022/04/27 06:05:48;;;;;;;;;;;;;;;9.53;100.00;100207.41;5051905;28;20020;-76
2022/04/27 06:08:17;;;;;;;;;;;;;;;9.56;100.00;100206.63;5053264;28;19924;-76
2022/04/27 06:10:47;;;;;;;;;;;;;;;9.68;100.00;100202.72;5053324;28;19932;-76
2022/04/27 06:13:14;;;;;;;;;;;;;;;9.57;100.00;100210.22;5036422;28;19929;-76
2022/04/27 06:15:49;;;;;;;;;;;;;;;9.64;100.00;100207.47;5031310;28;20042;-76
2022/04/27 06:18:30;;;;;;;;;;;;;;;10.29;100.00;100208.19;5036642;28;19929;-76
2022/04/27 06:20:58;;;;;;;;;;;;;;;10.67;100.00;100210.28;5053154;28;20374;-76
2022/04/27 06:23:25;;;;;;;;;;;;;;;11.36;100.00;100214.31;5034099;28;19932;-76
2022/04/27 06:25:53;;;;;;;;;;;;;;;11.35;100.00;100211.91;5073164;28;20402;-76
2022/04/27 06:28:24;;;;;;;;;;;;;;;11.54;100.00;100206.69;5113161;28;19924;-76
2022/04/27 06:30:53;;;;;;;;;;;;;;;11.92;100.00;100205.81;5097891;28;20027;-76
2022/04/27 06:33:22;;;;;;;;;;;;;;;12.84;100.00;100208.97;5114646;28;19930;-76
2022/04/27 06:35:50;;;;;;;;;;;;;;;13.52;100.00;100199.59;5114000;28;19927;-75
2022/04/27 06:38:18;;;;;;;;;;;;;;;13.61;100.00;100202.69;5131790;27;20458;-79
2022/04/27 06:41:09;;;;;;;;;;;;;;;13.86;100.00;100189.16;5080665;28;20290;-78
2022/04/27 06:44:14;;;;;;;;;;;;;;;14.76;100.00;100182.78;5055611;28;19932;-77
2022/04/27 06:47:00;;;;;;;;;;;;;;;15.61;100.00;100194.25;5072542;28;19925;-78
2022/04/27 06:50:00;;;;;;;;;;;;;;;16.39;100.00;100187.03;4973697;28;19996;-78
2022/04/27 06:52:59;;;;;;;;;;;;;;;16.31;100.00;100177.13;4953614;28;19970;-78
2022/04/27 06:55:45;;;;;;;;;;;;;;;14.21;100.00;100179.50;4954378;29;19927;-78
2022/04/27 06:58:31;;;;;;;;;;;;;;;14.50;100.00;100186.38;4954283;29;20583;-77
2022/04/27 07:01:18;;;;;;;;;;;;;;;15.44;100.00;100188.91;4954136;29;19949;-77
2022/04/27 07:03:45;;;;;;;;;;;;;;;15.01;100.00;100188.03;4954359;29;19934;-76
2022/04/27 07:06:13;;;;;;;;;;;;;;;14.43;100.00;100187.25;4954288;29;19926;-77
2022/04/27 07:08:40;;;;;;;;;;;;;;;15.27;100.00;100185.16;4954161;29;20404;-77
2022/04/27 07:11:07;;;;;;;;;;;;;;;14.15;100.00;100193.25;4938335;29;20373;-77
2022/04/27 07:13:34;;;;;;;;;;;;;;;13.19;100.00;100194.66;4938071;29;19954;-77
2022/04/27 07:16:01;;;;;;;;;;;;;;;13.14;100.00;100199.94;4969213;28;19929;-84
2022/04/27 07:18:29;;;;;;;;;;;;;;;13.64;100.00;100195.44;4973631;28;19969;-79
2022/04/27 07:20:56;;;;;;;;;;;;;;;14.27;100.00;100189.91;4973855;28;19926;-77
2022/04/27 07:23:24;;;;;;;;;;;;;;;13.23;100.00;100205.84;4973804;28;20345;-83
2022/04/27 07:25:51;;;;;;;;;;;;;;;12.18;100.00;100216.53;4997983;28;19928;-76
2022/04/27 07:28:18;;;;;;;;;;;;;;;12.27;100.00;100218.88;5073423;28;19923;-76
2022/04/27 07:30:45;;;;;;;;;;;;;;;11.81;100.00;100221.88;5114698;28;20019;-74
2022/04/27 07:33:12;;;;;;;;;;;;;;;11.73;100.00;100227.88;5114025;28;19932;-74
2022/04/27 07:35:40;;;;;;;;;;;;;;;11.45;100.00;100230.72;5112769;28;19924;-75
2022/04/27 07:38:07;;;;;;;;;;;;;;;11.43;100.00;100231.09;5114773;28;19924;-75
2022/04/27 07:40:35;;;;;;;;;;;;;;;11.41;100.00;100233.50;5114524;28;20019;-74
2022/04/27 07:43:04;;;;;;;;;;;;;;;10.88;100.00;100241.06;5114387;28;19923;-75
2022/04/27 07:45:31;;;;;;;;;;;;;;;10.99;100.00;100241.91;5114609;28;19935;-75
2022/04/27 07:47:58;;;;;;;;;;;;;;;10.71;100.00;100255.81;5112261;28;19924;-75
2022/04/27 07:50:26;;;;;;;;;;;;;;;10.73;100.00;100253.44;5114423;28;19930;-74
2022/04/27 07:52:56;;;;;;;;;;;;;;;10.55;100.00;100252.59;5114491;28;19923;-74
2022/04/27 07:55:23;;;;;;;;;;;;;;;10.17;100.00;100253.25;5114490;28;19923;-74
2022/04/27 07:57:50;;;;;;;;;;;;;;;9.50;100.00;100263.97;5112983;28;20004;-74
2022/04/27 08:00:17;;;;;;;;;;;;;;;9.69;100.00;100260.13;5110860;28;19924;-75
2022/04/27 08:02:45;;;;;;;;;;;;;;;9.61;100.00;100264.06;5114023;28;20003;-74
2022/04/27 08:05:15;;;;;;;;;;;;;;;9.72;100.00;100264.94;5114338;28;19930;-74
2022/04/27 08:07:46;;;;;;;;;;;;;;;9.87;100.00;100261.84;5124740;27;19924;-74
2022/04/27 08:10:14;;;;;;;;;;;;;;;10.06;100.00;100269.09;5116778;28;19924;-75
2022/04/27 08:12:46;;;;;;;;;;;;;;;9.77;100.00;100272.94;5116600;28;20010;-74
2022/04/27 08:15:14;;;;;;;;;;;;;;;9.36;100.00;100271.47;5116683;28;19923;-74
2022/04/27 08:17:51;;;;;;;;;;;;;;;9.62;100.00;100283.19;5134798;27;19923;-75
2022/04/27 08:23:06;;;;;;;;;;;;;;;9.59;100.00;100283.19;5116513;28;20006;-73
2022/04/27 08:25:34;;;;;;;;;;;;;;;9.99;100.00;100283.84;5099346;28;19923;-73
2022/04/27 08:28:05;;;;;;;;;;;;;;;9.67;100.00;100284.81;5134801;28;20327;-73
2022/04/27 08:30:35;;;;;;;;;;;;;;;9.81;100.00;100293.31;5116424;27;19974;-73
2022/04/27 08:33:03;;;;;;;;;;;;;;;9.22;100.00;100286.09;5099822;28;19924;-73
2022/04/27 08:35:34;;;;;;;;;;;;;;;9.41;100.00;100294.19;5134501;28;20017;-73
2022/04/27 08:38:01;;;;;;;;;;;;;;;9.54;100.00;100300.28;5134455;27;19927;-73
2022/04/27 08:40:28;;;;;;;;;;;;;;;9.16;100.00;100293.19;5115808;28;20089;-73
2022/04/27 08:42:56;;;;;;;;;;;;;;;9.78;100.00;100294.09;5134245;28;20007;-73
2022/04/27 08:45:24;;;;;;;;;;;;;;;9.76;100.00;100299.25;5134091;28;19930;-73
2022/04/27 08:47:54;;;;;;;;;;;;;;;9.51;100.00;100298.28;5080791;28;20281;-73
2022/04/27 08:50:22;;;;;;;;;;;;;;;9.47;100.00;100303.81;5133708;28;19934;-73
2022/04/27 08:52:50;;;;;;;;;;;;;;;9.51;100.00;100298.28;5131401;27;19985;-73
2022/04/27 08:55:18;;;;;;;;;;;;;;;9.31;100.00;100299.69;5116031;28;20369;-73
2022/04/27 08:57:45;;;;;;;;;;;;;;;9.12;100.00;100304.31;5115500;28;19923;-73
2022/04/27 09:00:14;;;;;;;;;;;;;;;9.07;100.00;100306.66;5099472;28;20010;-73
2022/04/27 09:02:41;;;;;;;;;;;;;;;9.40;100.00;100298.19;5134623;28;20022;-73
2022/04/27 09:05:12;;;;;;;;;;;;;;;9.27;100.00;100304.44;5134468;28;19923;-73
2022/04/27 09:07:40;;;;;;;;;;;;;;;9.11;100.00;100313.06;5134234;27;19923;-73
2022/04/27 09:10:09;;;;;;;;;;;;;;;8.96;100.00;100300.97;5133900;28;19977;-73
2022/04/27 09:12:42;;;;;;;;;;;;;;;9.37;100.00;100310.13;5116072;28;19924;-73
2022/04/27 09:15:10;;;;;;;;;;;;;;;9.19;100.00;100309.94;5135590;27;19923;-73
2022/04/27 09:23:23;;;;;;;;;;;;;;;9.33;100.00;100320.44;5138070;27;20054;-73
2022/04/27 09:25:51;;;;;;;;;;;;;;;9.74;100.00;100321.19;5119345;27;20291;-73
2022/04/27 09:28:34;;;;;;;;;;;;;;;9.86;100.00;100323.66;5137829;27;19923;-73
2022/04/27 09:31:01;;;;;;;;;;;;;;;10.12;100.00;100317.84;5137650;27;19923;-73
2022/04/27 09:33:38;;;;;;;;;;;;;;;10.28;100.00;100321.16;5102381;27;19923;-73
2022/04/27 09:36:19;;;;;;;;;;;;;;;10.56;100.00;100326.84;5119529;27;19923;-73
2022/04/27 09:38:49;;;;;;;;;;;;;;;10.06;100.00;100313.78;5119745;27;19924;-73
2022/04/27 09:41:36;;;;;;;;;;;;;;;9.73;100.00;100323.16;5119004;27;19923;-73
2022/04/27 09:44:03;;;;;;;;;;;;;;;9.74;100.00;100337.94;5119416;27;19923;-73
2022/04/27 09:46:30;;;;;;;;;;;;;;;9.80;100.00;100330.78;5137475;27;20015;-73
2022/04/27 09:49:11;;;;;;;;;;;;;;;9.70;100.00;100318.34;5102255;27;20018;-73
2022/04/27 09:51:55;;;;;;;;;;;;;;;10.19;100.00;100329.06;5099876;27;19931;-73
2022/04/27 09:54:24;;;;;;;;;;;;;;;9.77;100.00;100326.00;5134673;27;19970;-73
2022/04/27 09:56:54;;;;;;;;;;;;;;;9.39;100.00;100327.25;5117600;27;19923;-73
2022/04/27 09:59:30;;;;;;;;;;;;;;;9.46;100.00;100326.53;5137270;27;19999;-73
2022/04/27 10:01:58;;;;;;;;;;;;;;;9.75;100.00;100334.75;5118642;27;20308;-73
2022/04/27 10:04:26;;;;;;;;;;;;;;;10.01;100.00;100331.72;5118508;27;19923;-73
2022/04/27 10:06:53;;;;;;;;;;;;;;;9.92;100.00;100333.28;5136847;27;19979;-73
2022/04/27 10:09:20;;;;;;;;;;;;;;;10.31;100.00;100337.94;5136817;27;19924;-73
2022/04/27 10:12:03;;;;;;;;;;;;;;;10.19;100.00;100324.25;5136965;27;19949;-73
2022/04/27 10:14:30;;;;;;;;;;;;;;;10.38;100.00;100323.97;5136906;27;19930;-73
2022/04/27 10:16:57;;;;;;;;;;;;;;;10.12;100.00;100326.22;5136730;27;20023;-73
2022/04/27 10:19:25;;;;;;;;;;;;;;;10.53;100.00;100319.25;5101634;27;19923;-73
2022/04/27 10:22:01;;;;;;;;;;;;;;;9.88;100.00;100324.06;5136470;27;20406;-73
2022/04/27 10:24:34;;;;;;;;;;;;;;;9.91;100.00;100321.28;5118399;27;19924;-73
2022/04/27 10:27:14;;;;;;;;;;;;;;;9.71;100.00;100324.75;5118349;27;19972;-73
2022/04/27 10:29:43;;;;;;;;;;;;;;;10.00;100.00;100318.94;5136667;27;19929;-73
2022/04/27 10:32:10;;;;;;;;;;;;;;;10.65;100.00;100330.06;5118133;27;19949;-73
2022/04/27 10:34:38;;;;;;;;;;;;;;;9.92;100.00;100320.09;5118311;27;19931;-73
2022/04/27 10:37:04;;;;;;;;;;;;;;;9.92;100.00;100328.47;5100789;27;20007;-73
2022/04/27 10:39:35;;;;;;;;;;;;;;;10.25;100.00;100325.50;5118038;27;19923;-73
2022/04/27 10:42:02;;;;;;;;;;;;;;;10.26;100.00;100331.91;5136365;27;19991;-73
2022/04/27 10:44:47;;;;;;;;;;;;;;;10.37;100.00;100330.78;5136531;27;19925;-73
2022/04/27 10:47:18;;;;;;;;;;;;;;;11.02;100.00;100327.78;5068642;28;19924;-73
2022/04/27 10:49:50;;;;;;;;;;;;;;;10.91;100.00;100326.97;5080071;28;19970;-76
2022/04/27 10:52:24;;;;;;;;;;;;;;;11.12;100.00;100320.63;5080078;28;19930;-75
2022/04/27 10:54:51;;;;;;;;;;;;;;;11.04;100.00;100336.59;5097184;28;20037;-75
2022/04/27 10:57:19;;;;;;;;;;;;;;;10.77;100.00;100335.31;5115302;28;19924;-74
2022/04/27 10:59:49;;;;;;;;;;;;;;;10.97;100.00;100330.97;5132085;27;20405;-74
2022/04/27 11:02:35;;;;;;;;;;;;;;;10.80;100.00;100342.91;5117627;27;20310;-74
2022/04/27 11:05:04;;;;;;;;;;;;;;;11.10;100.00;100331.41;5135501;27;19923;-75
2022/04/27 11:07:34;;;;;;;;;;;;;;;11.24;100.00;100329.41;5117249;27;19923;-76
2022/04/27 11:10:05;;;;;;;;;;;;;;;11.72;100.00;100327.88;5117522;27;19938;-74
2022/04/27 11:12:33;;;;;;;;;;;;;;;11.77;100.00;100330.28;5127326;27;19923;-74
2022/04/27 11:15:01;;;;;;;;;;;;;;;11.53;100.00;100325.44;5117266;27;19923;-76
2022/04/27 11:17:29;;;;;;;;;;;;;;;11.02;100.00;100327.00;5134262;27;19924;-76
2022/04/27 11:19:56;;;;;;;;;;;;;;;10.52;100.00;100331.63;5134119;27;19924;-75
2022/04/27 11:22:23;;;;;;;;;;;;;;;10.82;100.00;100337.72;5134028;27;19934;-75
2022/04/27 11:24:53;;;;;;;;;;;;;;;11.22;100.00;100331.84;5115896;27;20400;-76
2022/04/27 11:27:29;;;;;;;;;;;;;;;11.41;100.00;100333.44;5134011;27;19930;-76
2022/04/27 11:29:57;;;;;;;;;;;;;;;11.77;100.00;100332.28;5133938;27;19954;-76
2022/04/27 11:32:25;;;;;;;;;;;;;;;11.87;100.00;100325.88;5134621;27;19985;-76
2022/04/27 11:34:52;;;;;;;;;;;;;;;10.79;100.00;100325.34;5115878;27;19992;-76
2022/04/27 11:37:19;;;;;;;;;;;;;;;10.70;100.00;100321.31;5133996;27;19924;-75
2022/04/27 11:39:47;;;;;;;;;;;;;;;11.44;100.00;100322.25;5115952;27;20267;-76
2022/04/27 11:42:17;;;;;;;;;;;;;;;11.22;100.00;100328.22;5134365;27;19930;-76
2022/04/27 11:44:52;;;;;;;;;;;;;;;11.58;100.00;100332.66;5116106;27;20301;-76
2022/04/27 11:47:26;;;;;;;;;;;;;;;11.98;100.00;100319.03;5134296;27;19933;-76
2022/04/27 11:50:01;;;;;;;;;;;;;;;12.07;100.00;100327.81;5115935;27;19934;-76
2022/04/27 11:52:30;;;;;;;;;;;;;;;12.14;100.00;100316.63;5134244;27;20014;-76
2022/04/27 11:55:02;;;;;;;;;;;;;;;12.25;100.00;100328.56;5134336;27;19923;-76
2022/04/27 11:57:29;;;;;;;;;;;;;;;11.99;100.00;100331.06;5134070;27;19930;-76
2022/04/27 11:59:57;;;;;;;;;;;;;;;11.76;100.00;100331.47;5134382;27;19930;-76
2022/04/27 12:02:27;;;;;;;;;;;;;;;11.15;100.00;100337.41;5134124;27;20022;-76
2022/04/27 12:04:58;;;;;;;;;;;;;;;11.28;100.00;100329.44;5133727;27;20293;-75
2022/04/27 12:07:25;;;;;;;;;;;;;;;11.53;100.00;100325.44;5133967;27;19923;-76
2022/04/27 12:10:06;;;;;;;;;;;;;;;11.47;100.00;100327.06;5134079;27;20031;-76
2022/04/27 12:12:37;;;;;;;;;;;;;;;11.68;100.00;100332.69;5115810;28;20039;-76
2022/04/27 12:15:07;;;;;;;;;;;;;;;11.84;100.00;100327.47;5134055;27;19991;-76
2022/04/27 12:17:46;;;;;;;;;;;;;;;11.35;100.00;100324.66;5133814;27;19963;-76
2022/04/27 12:20:34;;;;;;;;;;;;;;;10.93;100.00;100319.78;5098407;28;20293;-76
2022/04/27 12:23:02;;;;;;;;;;;;;;;11.97;100.00;100317.44;5134042;27;19930;-76
2022/04/27 12:25:34;;;;;;;;;;;;;;;11.35;100.00;100316.25;5133893;27;20301;-76
2022/04/27 12:28:03;;;;;;;;;;;;;;;12.44;100.00;100311.31;5133833;27;20077;-76
2022/04/27 12:30:30;;;;;;;;;;;;;;;13.16;100.00;100306.97;5133910;27;20016;-76
2022/04/27 12:32:59;;;;;;;;;;;;;;;12.44;100.00;100305.72;5133577;27;20449;-76
2022/04/27 12:38:18;;;;;;;;;;;;;;;10.95;100.00;100306.19;5133737;27;19924;-75
2022/04/27 12:40:45;;;;;;;;;;;;;;;11.90;100.00;100311.06;5133734;27;19923;-75
2022/04/27 12:43:14;;;;;;;;;;;;;;;10.89;100.00;100312.56;5115526;28;19923;-75
2022/04/27 12:46:01;;;;;;;;;;;;;;;11.10;100.00;100306.22;5133819;27;19923;-75
2022/04/27 12:48:30;;;;;;;;;;;;;;;11.15;100.00;100308.66;5133461;27;19924;-75
2022/04/27 12:51:00;;;;;;;;;;;;;;;12.38;100.00;100293.31;5101289;27;19924;-75
2022/04/27 12:53:28;;;;;;;;;;;;;;;11.91;100.00;100296.66;5137663;27;19959;-75
2022/04/27 12:56:01;;;;;;;;;;;;;;;11.42;100.00;100295.88;5137571;27;20408;-75
2022/04/27 12:58:29;;;;;;;;;;;;;;;11.18;100.00;100291.84;5137744;27;20295;-75
2022/04/27 13:00:56;;;;;;;;;;;;;;;11.68;100.00;100296.28;5137636;27;19962;-75
2022/04/27 13:03:23;;;;;;;;;;;;;;;11.65;100.00;100291.47;5137328;27;19972;-75
2022/04/27 13:05:51;;;;;;;;;;;;;;;11.65;100.00;100299.06;5137329;27;19969;-75
2022/04/27 13:08:18;;;;;;;;;;;;;;;11.47;100.00;100287.88;5119211;27;19958;-75
2022/04/27 13:13:32;;;;;;;;;;;;;;;11.59;100.00;100297.84;5118792;27;19968;-75
2022/04/27 13:16:00;;;;;;;;;;;;;;;11.47;100.00;100299.06;5137006;27;19924;-75
2022/04/27 13:18:28;;;;;;;;;;;;;;;11.48;100.00;100292.25;5137060;27;19923;-75
2022/04/27 13:20:55;;;;;;;;;;;;;;;11.40;100.00;100287.88;5137189;27;19923;-76
2022/04/27 13:23:22;;;;;;;;;;;;;;;12.17;100.00;100282.19;5118926;27;19930;-76